Time;durP1;ratioP1;P1;durP2;ratioP2;P2;SDS_P1;SDS_P2;PMS_P1;PMS_P2;Temp;Humidity;BMP_temperature;BMP_pressure;BME280_temperature;BME280_humidity;BME280_pressure;Samples;Min_cycle;Max_cycle;Signal;HPM_P1;HPM_P2
2023/09/06 00:00:29;;;;;;;11.13;6.85;;;12.70;99.90;;;;;;5022828;28;20026;-85
2023/09/06 00:02:58;;;;;;;10.02;6.80;;;12.70;99.90;;;;;;5024245;28;20025;-84
2023/09/06 00:05:24;;;;;;;11.40;6.68;;;12.70;99.90;;;;;;5022224;28;20025;-85
2023/09/06 00:07:50;;;;;;;12.45;7.00;;;12.70;99.90;;;;;;5022899;28;20061;-85
2023/09/06 00:10:16;;;;;;;10.48;7.40;;;12.70;99.90;;;;;;5023376;28;20580;-86
2023/09/06 00:12:42;;;;;;;9.18;6.35;;;12.70;99.90;;;;;;5022849;28;20068;-85
2023/09/06 00:15:09;;;;;;;8.25;6.85;;;12.60;99.90;;;;;;5023159;28;20056;-85
2023/09/06 00:17:38;;;;;;;10.07;6.60;;;12.60;99.90;;;;;;5023587;28;20034;-86
2023/09/06 00:20:20;;;;;;;9.45;6.93;;;12.60;99.90;;;;;;5022420;28;20376;-85
2023/09/06 00:22:57;;;;;;;10.45;6.63;;;12.50;99.90;;;;;;5023352;28;20021;-85
2023/09/06 00:25:23;;;;;;;13.43;6.90;;;12.50;99.90;;;;;;5022713;28;20021;-85
2023/09/06 00:27:50;;;;;;;11.43;7.30;;;12.50;99.90;;;;;;5022328;28;20032;-85
2023/09/06 00:30:18;;;;;;;10.77;6.93;;;12.50;99.90;;;;;;5025159;28;20037;-85
2023/09/06 00:32:44;;;;;;;7.72;6.15;;;12.50;99.90;;;;;;5026949;28;20038;-84
2023/09/06 00:35:10;;;;;;;10.88;6.60;;;12.50;99.90;;;;;;5027174;28;20087;-85
2023/09/06 00:37:40;;;;;;;11.38;6.85;;;12.50;99.90;;;;;;5026489;28;20435;-85
2023/09/06 00:40:17;;;;;;;10.55;6.15;;;12.40;99.90;;;;;;5027158;28;20033;-85
2023/09/06 00:42:45;;;;;;;8.73;6.80;;;12.40;99.90;;;;;;5026854;28;20040;-85
2023/09/06 00:45:10;;;;;;;8.18;6.13;;;12.40;99.90;;;;;;5026340;28;20037;-85
2023/09/06 00:47:36;;;;;;;10.88;5.95;;;12.40;99.90;;;;;;5026412;28;20538;-85
2023/09/06 00:50:02;;;;;;;8.63;5.95;;;12.30;99.90;;;;;;5026997;28;20104;-84
2023/09/06 00:52:28;;;;;;;8.95;6.25;;;12.30;99.90;;;;;;5026408;28;20087;-85
2023/09/06 00:54:54;;;;;;;10.30;6.47;;;12.20;99.90;;;;;;5025751;28;21382;-85
2023/09/06 00:57:19;;;;;;;11.35;7.18;;;12.20;99.90;;;;;;5026192;28;20083;-85
2023/09/06 00:59:49;;;;;;;9.48;6.15;;;12.20;99.90;;;;;;5026366;28;20033;-85
2023/09/06 01:02:14;;;;;;;9.90;6.72;;;12.10;99.90;;;;;;5024593;28;20036;-85
2023/09/06 01:04:41;;;;;;;10.13;7.55;;;12.20;99.90;;;;;;5026197;28;20129;-85
2023/09/06 01:07:07;;;;;;;9.25;7.13;;;12.10;99.90;;;;;;5026630;28;20029;-85
2023/09/06 01:09:33;;;;;;;11.32;7.97;;;12.10;99.90;;;;;;5027265;28;20744;-85
2023/09/06 01:11:59;;;;;;;10.70;7.82;;;12.10;99.90;;;;;;5025895;28;20033;-84
2023/09/06 01:14:24;;;;;;;12.40;8.20;;;12.10;99.90;;;;;;5026839;28;20037;-84
2023/09/06 01:16:53;;;;;;;10.25;7.30;;;12.10;99.90;;;;;;5025659;28;20553;-85
2023/09/06 01:19:18;;;;;;;12.60;5.30;;;12.00;99.90;;;;;;5025304;28;20033;-84
2023/09/06 01:22:05;;;;;;;9.02;4.13;;;12.00;99.90;;;;;;5025909;28;20024;-84
2023/09/06 01:24:30;;;;;;;9.25;6.63;;;12.00;99.90;;;;;;5024960;28;21002;-84
2023/09/06 01:26:57;;;;;;;9.10;6.88;;;12.00;99.90;;;;;;5025836;28;20036;-84
2023/09/06 01:29:23;;;;;;;253.60;237.57;;;12.00;99.90;;;;;;5025551;28;20029;-84
2023/09/06 01:31:48;;;;;;;10.43;6.82;;;12.00;99.90;;;;;;5025536;28;20083;-84
2023/09/06 01:34:14;;;;;;;10.50;6.72;;;12.00;99.90;;;;;;5026178;28;20025;-84
2023/09/06 01:36:39;;;;;;;9.10;6.63;;;12.00;99.90;;;;;;5026334;28;20025;-84
2023/09/06 01:39:06;;;;;;;10.63;6.43;;;12.00;99.90;;;;;;5025951;28;20124;-84
2023/09/06 01:41:31;;;;;;;10.95;7.07;;;12.00;99.90;;;;;;5025572;28;20481;-84
2023/09/06 01:43:57;;;;;;;10.98;8.10;;;12.00;99.90;;;;;;5025993;28;20033;-84
2023/09/06 01:46:25;;;;;;;11.13;7.78;;;12.00;99.90;;;;;;5025875;28;20025;-84
2023/09/06 01:48:51;;;;;;;14.32;7.68;;;12.00;99.90;;;;;;5025737;28;20018;-84
2023/09/06 01:51:16;;;;;;;7.75;6.22;;;12.10;99.90;;;;;;5025884;28;21090;-84
2023/09/06 01:53:42;;;;;;;7.05;5.82;;;12.00;99.90;;;;;;5026510;28;20121;-84
2023/09/06 01:56:08;;;;;;;9.25;6.15;;;12.00;99.90;;;;;;5026203;28;20443;-84
2023/09/06 01:58:37;;;;;;;7.30;5.53;;;11.90;99.90;;;;;;5025616;28;20021;-84
2023/09/06 02:01:09;;;;;;;10.85;6.55;;;11.90;99.90;;;;;;5025443;28;20035;-84
2023/09/06 02:03:35;;;;;;;9.68;6.68;;;11.90;99.90;;;;;;5026021;28;20028;-84
2023/09/06 02:06:01;;;;;;;8.98;5.80;;;11.80;99.90;;;;;;5025398;28;20029;-84
2023/09/06 02:08:27;;;;;;;9.57;6.53;;;11.80;99.90;;;;;;5025142;28;20048;-84
2023/09/06 02:10:52;;;;;;;7.95;6.25;;;11.80;99.90;;;;;;5025390;28;20043;-84
2023/09/06 02:13:18;;;;;;;9.82;6.30;;;11.80;99.90;;;;;;5025372;28;20080;-84
2023/09/06 02:15:43;;;;;;;9.38;6.25;;;11.80;99.90;;;;;;5025130;28;20021;-84
2023/09/06 02:18:15;;;;;;;10.27;6.75;;;11.80;99.90;;;;;;5024577;28;20064;-84
2023/09/06 02:20:41;;;;;;;8.55;6.82;;;11.80;99.90;;;;;;5024962;28;20116;-85
2023/09/06 02:23:07;;;;;;;11.68;6.90;;;11.80;99.90;;;;;;5025056;28;20108;-84
2023/09/06 02:25:33;;;;;;;10.02;7.32;;;11.70;99.90;;;;;;5024825;28;20587;-84
2023/09/06 02:28:05;;;;;;;7.60;6.50;;;11.70;99.90;;;;;;5024528;28;20946;-84
2023/09/06 02:30:31;;;;;;;9.30;6.25;;;11.70;99.90;;;;;;5024553;28;20045;-85
2023/09/06 02:32:57;;;;;;;11.50;7.30;;;11.60;99.90;;;;;;5025565;28;20041;-84
2023/09/06 02:35:23;;;;;;;9.27;6.68;;;11.60;99.90;;;;;;5024778;28;20032;-86
2023/09/06 02:37:48;;;;;;;9.73;7.07;;;11.60;99.90;;;;;;5025089;28;20025;-85
2023/09/06 02:40:17;;;;;;;12.02;6.95;;;11.50;99.90;;;;;;5025736;28;20777;-84
2023/09/06 02:42:44;;;;;;;8.80;6.75;;;11.50;99.90;;;;;;5025087;28;20144;-84
2023/09/06 02:45:11;;;;;;;8.82;6.75;;;11.50;99.90;;;;;;5024851;28;20060;-84
2023/09/06 02:47:48;;;;;;;8.88;6.13;;;11.40;99.90;;;;;;5024667;28;20021;-84
2023/09/06 02:50:16;;;;;;;12.30;6.50;;;11.40;99.90;;;;;;5023927;28;20022;-84
2023/09/06 02:52:44;;;;;;;6.82;5.38;;;11.40;99.90;;;;;;5024140;28;20441;-84
2023/09/06 02:55:13;;;;;;;8.82;6.40;;;11.40;99.90;;;;;;5024512;28;20034;-84
2023/09/06 02:57:40;;;;;;;9.30;6.35;;;11.30;99.90;;;;;;5024464;28;20021;-84
2023/09/06 03:00:18;;;;;;;8.10;6.32;;;11.30;99.90;;;;;;5024364;28;20087;-84
2023/09/06 03:02:45;;;;;;;9.30;6.32;;;11.30;99.90;;;;;;5024665;28;20054;-84
2023/09/06 03:05:10;;;;;;;9.90;6.38;;;11.30;99.90;;;;;;5024555;28;20021;-85
2023/09/06 03:07:36;;;;;;;9.75;6.90;;;11.20;99.90;;;;;;5024483;28;20025;-84
2023/09/06 03:10:02;;;;;;;10.25;7.25;;;11.20;99.90;;;;;;5024251;28;20018;-83
2023/09/06 03:12:29;;;;;;;9.65;6.78;;;11.20;99.90;;;;;;5024655;28;20033;-84
2023/09/06 03:14:55;;;;;;;10.85;6.85;;;11.20;99.90;;;;;;5024193;28;20125;-84
2023/09/06 03:17:22;;;;;;;10.73;7.78;;;11.20;99.90;;;;;;5024004;28;20072;-84
2023/09/06 03:19:53;;;;;;;11.38;7.97;;;11.20;99.90;;;;;;5024928;28;20208;-84
2023/09/06 03:22:21;;;;;;;12.02;7.82;;;11.20;99.90;;;;;;5025770;28;20049;-84
2023/09/06 03:24:48;;;;;;;10.30;7.78;;;11.20;99.90;;;;;;5024749;28;20842;-84
2023/09/06 03:27:16;;;;;;;10.38;7.90;;;11.20;99.90;;;;;;5023867;28;20037;-84
2023/09/06 03:29:46;;;;;;;11.18;7.90;;;11.20;99.90;;;;;;5024283;28;20094;-84
2023/09/06 03:32:11;;;;;;;11.00;7.88;;;11.20;99.90;;;;;;5024294;28;20401;-84
2023/09/06 03:34:40;;;;;;;10.95;8.35;;;11.20;99.90;;;;;;5023949;28;20029;-84
2023/09/06 03:37:08;;;;;;;11.52;7.40;;;11.20;99.90;;;;;;5023627;28;20512;-84
2023/09/06 03:39:37;;;;;;;15.13;6.93;;;11.20;99.90;;;;;;5023435;28;20036;-84
2023/09/06 03:42:08;;;;;;;9.70;6.25;;;11.20;99.90;;;;;;5023899;28;20032;-84
2023/09/06 03:44:37;;;;;;;8.55;6.03;;;11.10;99.90;;;;;;5023993;28;20034;-84
2023/09/06 03:47:05;;;;;;;9.13;6.10;;;11.10;99.90;;;;;;5023503;28;20033;-84
2023/09/06 03:49:32;;;;;;;9.23;6.32;;;11.00;99.90;;;;;;5023846;28;20029;-84
2023/09/06 03:51:58;;;;;;;10.80;7.15;;;11.00;99.90;;;;;;5024042;28;21379;-84
2023/09/06 03:54:24;;;;;;;10.48;6.50;;;11.00;99.90;;;;;;5024386;28;20032;-84
2023/09/06 03:56:50;;;;;;;9.88;6.88;;;11.00;99.90;;;;;;5023210;28;20022;-84
2023/09/06 03:59:16;;;;;;;8.70;6.78;;;11.00;99.90;;;;;;5023407;28;20033;-84
2023/09/06 04:01:43;;;;;;;11.07;7.97;;;11.00;99.90;;;;;;5023125;28;20036;-84
2023/09/06 04:04:10;;;;;;;10.93;7.38;;;10.90;99.90;;;;;;5025804;28;20433;-83
2023/09/06 04:06:35;;;;;;;10.80;7.57;;;10.90;99.90;;;;;;5027501;28;20531;-84
2023/09/06 04:09:01;;;;;;;9.20;7.28;;;10.90;99.90;;;;;;5027002;28;20156;-84
2023/09/06 04:11:26;;;;;;;9.43;7.20;;;10.90;99.90;;;;;;5027607;28;20036;-84
2023/09/06 04:13:52;;;;;;;9.38;6.95;;;10.80;99.90;;;;;;5027626;28;20069;-83
2023/09/06 04:16:18;;;;;;;10.38;6.60;;;10.90;99.90;;;;;;5027273;28;21781;-84
2023/09/06 04:18:43;;;;;;;11.00;6.90;;;10.80;99.90;;;;;;5027496;28;20103;-84
2023/09/06 04:21:09;;;;;;;9.25;6.60;;;10.80;99.90;;;;;;5026857;28;20039;-84
2023/09/06 04:23:39;;;;;;;12.07;7.45;;;10.80;99.90;;;;;;5027400;28;20056;-84
2023/09/06 04:26:05;;;;;;;11.63;8.32;;;10.80;99.90;;;;;;5027310;28;20029;-84
2023/09/06 04:28:30;;;;;;;14.35;10.18;;;10.80;99.90;;;;;;5026961;28;20052;-84
2023/09/06 04:30:57;;;;;;;14.73;9.70;;;10.80;99.90;;;;;;5027568;28;20029;-84
2023/09/06 04:33:23;;;;;;;16.58;10.63;;;10.80;99.90;;;;;;5027829;28;21373;-84
2023/09/06 04:35:49;;;;;;;16.73;10.73;;;10.70;99.90;;;;;;5026694;28;20053;-84
2023/09/06 04:38:20;;;;;;;15.15;10.38;;;10.80;99.90;;;;;;5026609;28;20167;-83
2023/09/06 04:40:46;;;;;;;14.85;10.82;;;10.70;99.90;;;;;;5026902;28;20128;-84
2023/09/06 04:43:14;;;;;;;15.68;10.23;;;10.80;99.90;;;;;;5028012;28;20108;-85
2023/09/06 04:45:39;;;;;;;14.90;10.50;;;10.80;99.90;;;;;;5027559;28;20089;-83
2023/09/06 04:48:10;;;;;;;14.30;9.68;;;10.80;99.90;;;;;;5026538;28;20049;-84
2023/09/06 04:50:41;;;;;;;14.52;9.80;;;10.80;99.90;;;;;;5027580;28;20037;-84
2023/09/06 04:53:08;;;;;;;14.82;9.88;;;10.80;99.90;;;;;;5027093;28;20063;-84
2023/09/06 04:55:35;;;;;;;13.82;10.20;;;10.80;99.90;;;;;;5027408;28;20025;-83
2023/09/06 04:58:02;;;;;;;16.02;10.15;;;10.70;99.90;;;;;;5026730;28;20037;-85
2023/09/06 05:00:33;;;;;;;16.60;9.88;;;10.70;99.90;;;;;;5027211;28;20037;-84
2023/09/06 05:03:00;;;;;;;13.40;9.30;;;10.70;99.90;;;;;;5026846;28;20068;-84
2023/09/06 05:05:26;;;;;;;13.43;8.25;;;10.70;99.90;;;;;;5026463;28;20033;-84
2023/09/06 05:07:51;;;;;;;10.10;7.53;;;10.70;99.90;;;;;;5026030;28;20021;-83
2023/09/06 05:10:17;;;;;;;12.90;8.93;;;10.70;99.90;;;;;;5026584;28;20068;-83
2023/09/06 05:12:45;;;;;;;13.30;7.40;;;10.60;99.90;;;;;;5026693;28;20606;-83
2023/09/06 05:15:12;;;;;;;13.40;7.20;;;10.60;99.90;;;;;;5025299;28;20141;-84
2023/09/06 05:17:39;;;;;;;10.80;7.45;;;10.60;99.90;;;;;;5025456;28;20449;-83
2023/09/06 05:20:25;;;;;;;11.63;7.45;;;10.60;99.90;;;;;;5026045;28;20025;-84
2023/09/06 05:22:51;;;;;;;9.38;7.07;;;10.60;99.90;;;;;;5026709;28;20611;-84
2023/09/06 05:25:17;;;;;;;11.13;8.15;;;10.70;99.90;;;;;;5025443;28;20562;-84
2023/09/06 05:27:43;;;;;;;13.70;8.20;;;10.70;99.90;;;;;;5025851;28;20041;-84
2023/09/06 05:30:09;;;;;;;11.73;7.75;;;10.80;99.90;;;;;;5026394;28;20071;-84
2023/09/06 05:32:34;;;;;;;11.00;7.35;;;10.90;99.90;;;;;;5026626;28;20033;-84
2023/09/06 05:35:00;;;;;;;15.55;7.60;;;10.90;99.90;;;;;;5025761;28;20025;-83
2023/09/06 05:37:25;;;;;;;10.27;7.35;;;11.00;99.90;;;;;;5025311;28;20044;-84
2023/09/06 05:39:51;;;;;;;10.57;7.72;;;11.10;99.90;;;;;;5025313;28;20934;-84
2023/09/06 05:42:17;;;;;;;12.25;7.43;;;11.20;99.90;;;;;;5026511;28;20518;-84
2023/09/06 05:44:43;;;;;;;12.80;8.00;;;11.20;99.90;;;;;;5025054;28;20075;-84
2023/09/06 05:47:08;;;;;;;17.08;8.38;;;11.30;99.90;;;;;;5024899;28;21461;-83
2023/09/06 05:49:35;;;;;;;11.70;7.97;;;11.40;99.90;;;;;;5025118;28;20061;-84
2023/09/06 05:52:02;;;;;;;11.35;6.95;;;11.40;99.90;;;;;;5025177;28;20039;-84
2023/09/06 05:54:27;;;;;;;9.25;7.78;;;11.50;99.90;;;;;;5024619;28;20029;-85
2023/09/06 05:56:53;;;;;;;10.98;8.45;;;11.60;99.90;;;;;;5024875;28;20041;-84
2023/09/06 05:59:19;;;;;;;14.85;8.60;;;11.70;99.90;;;;;;5024215;28;20024;-83
2023/09/06 06:01:45;;;;;;;12.52;8.45;;;11.90;99.90;;;;;;5025167;28;20037;-84
2023/09/06 06:04:11;;;;;;;15.38;9.05;;;11.90;99.90;;;;;;5024759;28;20036;-84
2023/09/06 06:06:37;;;;;;;15.05;8.00;;;12.00;99.90;;;;;;5024551;28;20032;-84
2023/09/06 06:09:04;;;;;;;13.57;9.00;;;12.20;99.90;;;;;;5024021;28;20799;-84
2023/09/06 06:11:29;;;;;;;18.35;9.50;;;12.30;99.90;;;;;;5024744;28;20056;-84
2023/09/06 06:13:55;;;;;;;14.18;9.50;;;12.40;99.90;;;;;;5024940;28;20507;-84
2023/09/06 06:16:21;;;;;;;15.10;9.45;;;12.50;99.90;;;;;;5024463;28;20028;-84
2023/09/06 06:18:48;;;;;;;14.77;8.98;;;12.60;99.90;;;;;;5023946;28;20033;-84
2023/09/06 06:21:14;;;;;;;17.45;9.68;;;12.80;99.90;;;;;;5024093;28;20061;-84
2023/09/06 06:23:43;;;;;;;16.90;9.75;;;12.80;99.90;;;;;;5025109;28;20104;-84
2023/09/06 06:26:09;;;;;;;18.75;9.82;;;12.90;99.90;;;;;;5024092;28;20040;-84
2023/09/06 06:28:35;;;;;;;13.23;9.70;;;13.00;99.90;;;;;;5023742;28;20022;-84
2023/09/06 06:31:00;;;;;;;15.13;9.57;;;13.10;99.90;;;;;;5023492;28;20045;-84
2023/09/06 06:33:26;;;;;;;16.60;9.73;;;13.20;99.90;;;;;;5024618;28;20044;-84
2023/09/06 06:35:52;;;;;;;13.02;9.95;;;13.30;99.90;;;;;;5024217;28;20033;-84
2023/09/06 06:38:17;;;;;;;15.15;9.35;;;13.30;99.90;;;;;;5024173;28;20083;-84
2023/09/06 06:40:43;;;;;;;11.68;9.57;;;13.50;99.90;;;;;;5023291;28;20021;-84
2023/09/06 06:43:08;;;;;;;12.90;9.25;;;13.60;99.90;;;;;;5024883;28;20071;-84
2023/09/06 06:45:34;;;;;;;14.13;9.57;;;13.70;99.90;;;;;;5023714;28;20070;-85
2023/09/06 06:48:00;;;;;;;452.85;406.45;;;13.80;99.90;;;;;;5024043;28;20113;-85
2023/09/06 06:50:26;;;;;;;15.98;10.65;;;13.90;99.90;;;;;;5023623;28;20026;-84
2023/09/06 06:52:51;;;;;;;18.23;10.02;;;14.00;99.90;;;;;;5024120;28;20186;-84
2023/09/06 06:55:17;;;;;;;16.42;10.88;;;14.10;99.90;;;;;;5022634;28;21483;-84
2023/09/06 06:57:42;;;;;;;19.63;10.45;;;14.20;99.90;;;;;;5023474;28;20025;-84
2023/09/06 07:00:11;;;;;;;21.45;10.20;;;14.30;99.90;;;;;;5024328;28;20026;-85
2023/09/06 07:02:37;;;;;;;18.40;9.77;;;14.30;99.90;;;;;;5023724;28;20091;-85
2023/09/06 07:05:03;;;;;;;16.42;10.25;;;14.50;99.90;;;;;;5024070;28;20120;-86
2023/09/06 07:07:29;;;;;;;18.83;9.82;;;14.60;99.90;;;;;;5023715;28;20022;-84
2023/09/06 07:09:55;;;;;;;20.50;10.35;;;14.70;99.90;;;;;;5024366;28;20028;-84
2023/09/06 07:12:20;;;;;;;18.85;10.82;;;14.70;99.90;;;;;;5023878;28;20037;-86
2023/09/06 07:14:46;;;;;;;15.23;11.00;;;14.80;99.90;;;;;;5024867;28;20105;-84
2023/09/06 07:17:11;;;;;;;16.45;10.25;;;14.90;99.90;;;;;;5024986;28;20025;-85
2023/09/06 07:19:37;;;;;;;15.75;9.35;;;15.00;99.90;;;;;;5023477;28;20405;-84
2023/09/06 07:22:03;;;;;;;15.35;10.88;;;15.00;99.90;;;;;;5023711;28;20039;-85
2023/09/06 07:24:28;;;;;;;16.08;9.68;;;15.20;99.90;;;;;;5023353;28;20036;-85
2023/09/06 07:26:54;;;;;;;17.58;10.95;;;15.30;99.90;;;;;;5023149;28;20025;-85
2023/09/06 07:29:20;;;;;;;16.73;10.07;;;15.30;99.90;;;;;;5022614;28;21437;-84
2023/09/06 07:31:46;;;;;;;16.02;9.98;;;15.40;99.90;;;;;;5023494;28;20044;-84
2023/09/06 07:34:12;;;;;;;18.08;10.35;;;15.60;99.90;;;;;;5023248;28;20026;-85
2023/09/06 07:36:38;;;;;;;17.35;10.18;;;15.70;99.90;;;;;;5022884;28;20101;-84
2023/09/06 07:39:04;;;;;;;12.80;9.82;;;15.70;99.90;;;;;;5022551;28;20029;-85
2023/09/06 07:41:29;;;;;;;17.60;9.98;;;15.80;99.90;;;;;;5023143;28;20032;-86
2023/09/06 07:43:55;;;;;;;17.88;10.25;;;15.90;99.90;;;;;;5022933;28;20057;-85
2023/09/06 07:46:25;;;;;;;16.20;10.23;;;16.00;99.90;;;;;;5022639;28;20017;-85
2023/09/06 07:48:51;;;;;;;15.32;9.75;;;16.10;99.90;;;;;;5022902;28;20091;-86
2023/09/06 07:51:16;;;;;;;10.82;8.77;;;16.30;99.90;;;;;;5023149;28;20034;-85
2023/09/06 07:53:43;;;;;;;14.80;9.00;;;16.30;99.90;;;;;;5023130;28;20026;-86
2023/09/06 07:56:08;;;;;;;17.90;9.05;;;16.40;99.90;;;;;;5022551;28;20028;-85
2023/09/06 07:58:34;;;;;;;18.00;9.70;;;16.50;99.90;;;;;;5022967;28;20033;-85
2023/09/06 08:00:59;;;;;;;14.77;9.65;;;16.60;99.90;;;;;;5022690;28;20025;-86
2023/09/06 08:03:26;;;;;;;13.95;8.57;;;16.70;99.90;;;;;;5023147;28;20477;-85
2023/09/06 08:05:52;;;;;;;18.75;9.20;;;16.80;99.90;;;;;;5022190;28;20021;-86
2023/09/06 08:08:17;;;;;;;15.98;9.45;;;16.90;99.90;;;;;;5022913;28;20047;-86
2023/09/06 08:10:43;;;;;;;15.15;8.38;;;17.10;99.90;;;;;;5022566;28;20504;-84
2023/09/06 08:13:10;;;;;;;15.27;9.02;;;17.10;99.90;;;;;;5022973;28;20080;-84
2023/09/06 08:15:37;;;;;;;15.63;9.00;;;17.10;99.90;;;;;;5023101;28;20028;-85
2023/09/06 08:18:03;;;;;;;15.60;7.80;;;17.30;99.90;;;;;;5022432;28;20503;-85
2023/09/06 08:20:32;;;;;;;11.20;8.18;;;17.30;99.90;;;;;;5022554;28;20030;-86
2023/09/06 08:22:58;;;;;;;12.13;7.70;;;17.50;99.90;;;;;;5022673;28;20121;-85
2023/09/06 08:25:24;;;;;;;12.27;8.00;;;17.60;99.90;;;;;;5022530;28;20029;-86
2023/09/06 08:27:53;;;;;;;12.32;7.53;;;17.80;99.90;;;;;;5023117;28;20029;-85
2023/09/06 08:30:20;;;;;;;12.70;7.50;;;17.80;99.90;;;;;;5022329;28;20088;-85
2023/09/06 08:32:51;;;;;;;13.18;7.07;;;17.90;99.90;;;;;;5022547;28;20079;-84
2023/09/06 08:35:19;;;;;;;13.95;7.43;;;18.00;99.90;;;;;;5023071;28;20256;-85
2023/09/06 08:37:48;;;;;;;13.13;7.05;;;18.20;99.90;;;;;;5022320;28;20458;-86
2023/09/06 08:40:15;;;;;;;15.68;7.53;;;18.30;99.90;;;;;;5022580;28;20495;-85
2023/09/06 08:42:43;;;;;;;13.20;6.85;;;18.40;99.90;;;;;;5022776;28;20033;-85
2023/09/06 08:45:09;;;;;;;12.80;6.85;;;18.60;99.90;;;;;;5022379;28;20036;-84
2023/09/06 08:47:41;;;;;;;12.68;6.85;;;18.70;99.90;;;;;;5021716;28;20029;-84
2023/09/06 08:50:10;;;;;;;10.45;7.20;;;18.80;99.90;;;;;;5022783;28;20021;-85
2023/09/06 08:52:40;;;;;;;10.25;6.13;;;19.00;99.90;;;;;;5027401;28;21016;-85
2023/09/06 08:55:08;;;;;;;9.80;6.10;;;19.20;99.90;;;;;;5026621;28;20092;-85
2023/09/06 08:57:35;;;;;;;11.57;6.65;;;19.40;99.90;;;;;;5027654;28;20123;-86
2023/09/06 09:00:02;;;;;;;8.32;6.40;;;19.60;99.90;;;;;;5027588;28;20025;-85
2023/09/06 09:02:27;;;;;;;9.13;5.57;;;19.70;99.90;;;;;;5026214;28;20507;-85
2023/09/06 09:04:53;;;;;;;13.60;6.40;;;19.80;99.90;;;;;;5026093;28;20051;-85
2023/09/06 09:07:18;;;;;;;11.02;6.82;;;19.90;99.90;;;;;;5025789;28;20056;-85
2023/09/06 09:10:07;;;;;;;9.82;6.13;;;20.10;99.90;;;;;;5025444;28;20021;-86
2023/09/06 09:12:33;;;;;;;8.63;6.15;;;20.40;99.90;;;;;;5026023;28;20124;-87
2023/09/06 09:14:59;;;;;;;8.45;6.40;;;20.60;99.90;;;;;;5025312;28;20030;-86
2023/09/06 09:17:26;;;;;;;7.63;5.60;;;20.80;99.90;;;;;;5025368;28;20025;-85
2023/09/06 09:19:53;;;;;;;9.88;5.47;;;20.90;99.90;;;;;;5025270;28;20025;-86
2023/09/06 09:22:23;;;;;;;9.63;6.07;;;21.20;99.90;;;;;;5025450;28;20041;-85
2023/09/06 09:24:50;;;;;;;7.70;6.03;;;21.30;99.90;;;;;;5025330;28;20068;-86
2023/09/06 09:27:19;;;;;;;10.38;6.05;;;21.60;99.90;;;;;;5025355;28;20021;-85
2023/09/06 09:29:47;;;;;;;10.70;5.40;;;21.70;99.90;;;;;;5025274;28;20065;-85
2023/09/06 09:32:14;;;;;;;10.45;5.53;;;22.00;99.90;;;;;;5025827;28;20103;-86
2023/09/06 09:34:41;;;;;;;8.60;4.78;;;22.20;99.90;;;;;;5024574;28;20033;-86
2023/09/06 09:37:08;;;;;;;9.30;5.28;;;22.40;99.90;;;;;;5025258;28;20061;-85
2023/09/06 09:39:34;;;;;;;10.93;5.32;;;22.50;99.90;;;;;;5025264;28;20079;-86
2023/09/06 09:42:00;;;;;;;8.88;5.85;;;22.50;99.90;;;;;;5025826;28;20026;-86
2023/09/06 09:44:26;;;;;;;9.07;5.10;;;22.70;99.90;;;;;;5025146;28;20060;-86
2023/09/06 09:46:58;;;;;;;10.43;4.63;;;22.80;99.90;;;;;;5025871;28;20037;-86
2023/09/06 09:49:25;;;;;;;7.60;5.07;;;22.90;99.90;;;;;;5024356;28;20121;-85
2023/09/06 09:51:51;;;;;;;7.63;4.57;;;23.00;99.90;;;;;;5025438;28;20034;-86
2023/09/06 09:54:20;;;;;;;9.68;4.53;;;23.10;99.90;;;;;;5024839;28;20163;-86
2023/09/06 09:57:03;;;;;;;9.88;4.72;;;23.20;99.90;;;;;;5024836;28;20029;-85
2023/09/06 09:59:30;;;;;;;9.45;4.82;;;23.30;99.90;;;;;;5025263;28;20037;-86
2023/09/06 10:01:57;;;;;;;10.68;4.15;;;23.50;99.90;;;;;;5024564;28;20078;-85
2023/09/06 10:04:26;;;;;;;6.18;4.90;;;23.50;99.90;;;;;;5024874;28;20040;-87
2023/09/06 10:06:55;;;;;;;6.50;4.38;;;23.70;99.90;;;;;;5024775;28;20040;-86
2023/09/06 10:09:22;;;;;;;6.57;4.25;;;23.80;99.90;;;;;;5024322;28;20029;-84
2023/09/06 10:11:48;;;;;;;8.05;4.68;;;23.80;99.90;;;;;;5024813;28;20121;-87
2023/09/06 10:14:15;;;;;;;9.65;5.18;;;23.90;99.90;;;;;;5024805;28;20028;-86
2023/09/06 10:16:40;;;;;;;6.63;4.35;;;24.00;99.90;;;;;;5024556;28;20025;-86
2023/09/06 10:19:06;;;;;;;6.65;4.82;;;24.00;99.90;;;;;;5024853;28;20404;-87
2023/09/06 10:21:33;;;;;;;7.05;4.65;;;24.10;99.90;;;;;;5024237;28;20052;-86
2023/09/06 10:23:59;;;;;;;7.07;4.15;;;24.10;99.90;;;;;;5025002;28;20484;-86
2023/09/06 10:26:26;;;;;;;6.88;3.85;;;24.20;99.90;;;;;;5024627;28;20075;-85
2023/09/06 10:28:59;;;;;;;7.22;4.15;;;24.30;99.90;;;;;;5024347;28;20022;-87
2023/09/06 10:31:55;;;;;;;10.45;4.53;;;24.30;99.90;;;;;;5024262;28;20099;-87
2023/09/06 10:34:21;;;;;;;6.93;4.13;;;24.50;99.90;;;;;;5018536;28;20543;-86
2023/09/06 10:36:54;;;;;;;5.25;3.85;;;24.50;99.90;;;;;;5024615;28;20110;-86
2023/09/06 10:39:22;;;;;;;6.20;3.75;;;24.50;99.90;;;;;;5026215;28;20480;-86
2023/09/06 10:42:11;;;;;;;6.57;4.28;;;24.70;99.90;;;;;;5027762;28;20087;-86
2023/09/06 10:44:54;;;;;;;7.38;4.13;;;24.80;99.90;;;;;;5025812;28;20036;-86
2023/09/06 10:47:28;;;;;;;7.53;4.05;;;24.90;99.90;;;;;;5023257;28;20361;-87
2023/09/06 10:50:08;;;;;;;6.40;4.20;;;25.00;99.90;;;;;;5023921;28;20040;-88
2023/09/06 10:52:46;;;;;;;5.30;3.85;;;25.20;99.90;;;;;;5023852;28;20048;-86
2023/09/06 10:55:18;;;;;;;6.65;3.72;;;25.10;99.90;;;;;;5023937;28;20061;-86
2023/09/06 10:57:52;;;;;;;7.05;3.90;;;25.10;99.90;;;;;;5023840;28;20700;-86
2023/09/06 11:00:20;;;;;;;5.88;3.50;;;25.30;99.90;;;;;;5024177;28;20037;-86
2023/09/06 11:03:04;;;;;;;6.78;4.05;;;25.20;99.90;;;;;;5024283;28;20126;-86
2023/09/06 11:05:35;;;;;;;5.07;3.72;;;25.40;99.90;;;;;;5026346;28;20052;-85
2023/09/06 11:08:02;;;;;;;6.07;3.80;;;25.60;99.90;;;;;;5025003;28;20032;-87
2023/09/06 11:10:28;;;;;;;5.32;3.60;;;25.70;99.90;;;;;;5026199;28;20470;-86
2023/09/06 11:13:07;;;;;;;5.82;4.25;;;25.80;99.90;;;;;;5024035;28;20033;-85
2023/09/06 11:15:35;;;;;;;7.32;3.60;;;25.80;99.90;;;;;;5023631;28;20025;-87
2023/09/06 11:18:02;;;;;;;6.68;3.67;;;25.90;99.90;;;;;;5023155;28;20538;-86
2023/09/06 11:20:30;;;;;;;7.82;3.55;;;26.10;99.90;;;;;;5023312;28;20037;-87
2023/09/06 11:22:58;;;;;;;8.18;3.88;;;26.10;99.90;;;;;;5024043;28;20076;-87
2023/09/06 11:25:25;;;;;;;7.03;3.90;;;26.00;99.90;;;;;;5023652;28;20026;-85
2023/09/06 11:27:51;;;;;;;5.53;3.20;;;26.00;99.90;;;;;;5023813;28;20519;-86
2023/09/06 11:30:26;;;;;;;9.85;4.30;;;26.20;99.90;;;;;;5023387;28;20132;-86
2023/09/06 11:32:53;;;;;;;5.25;3.38;;;26.40;99.90;;;;;;5023689;28;20029;-86
2023/09/06 11:35:26;;;;;;;6.15;3.25;;;26.50;99.90;;;;;;5023879;28;20049;-85
2023/09/06 11:37:53;;;;;;;6.53;3.63;;;26.50;99.90;;;;;;5023410;28;20029;-87
2023/09/06 11:40:20;;;;;;;8.35;3.80;;;26.60;99.90;;;;;;5023986;28;20063;-86
2023/09/06 11:43:02;;;;;;;6.22;3.92;;;26.50;99.90;;;;;;5022634;28;20724;-87
2023/09/06 11:45:31;;;;;;;6.28;3.30;;;26.60;99.90;;;;;;5022077;28;20041;-86
2023/09/06 11:48:02;;;;;;;5.47;3.20;;;26.50;99.90;;;;;;5023254;28;20049;-86
2023/09/06 11:50:29;;;;;;;4.32;3.53;;;26.50;99.90;;;;;;5023406;28;20025;-87
2023/09/06 11:52:58;;;;;;;4.18;3.20;;;26.70;99.90;;;;;;5023725;28;20034;-87
2023/09/06 11:55:26;;;;;;;4.80;3.28;;;27.00;99.90;;;;;;5023783;28;20104;-88
2023/09/06 11:57:52;;;;;;;8.65;3.50;;;27.10;99.90;;;;;;5022953;28;20384;-87
2023/09/06 12:00:27;;;;;;;7.60;3.47;;;27.20;99.90;;;;;;5023844;28;20079;-87
2023/09/06 12:03:07;;;;;;;6.53;3.63;;;27.30;99.90;;;;;;5023319;28;20029;-87
2023/09/06 12:05:40;;;;;;;6.90;3.63;;;27.30;99.90;;;;;;5023475;28;20018;-87
2023/09/06 12:08:07;;;;;;;5.75;3.25;;;27.30;99.90;;;;;;5022941;28;20026;-86
2023/09/06 12:10:34;;;;;;;9.88;4.30;;;27.20;99.90;;;;;;5023150;28;20053;-88
2023/09/06 12:13:00;;;;;;;6.25;3.20;;;27.10;99.90;;;;;;5022891;28;20134;-87
2023/09/06 12:15:27;;;;;;;8.70;3.55;;;27.10;99.90;;;;;;5023824;28;20072;-87
2023/09/06 12:17:54;;;;;;;5.70;3.75;;;26.80;99.90;;;;;;5022886;28;20021;-86
2023/09/06 12:20:25;;;;;;;8.07;3.60;;;26.80;99.90;;;;;;5023292;28;20017;-87
2023/09/06 12:22:52;;;;;;;7.82;4.15;;;26.90;99.90;;;;;;5023608;28;20033;-87
2023/09/06 12:25:19;;;;;;;8.05;3.53;;;26.90;99.90;;;;;;5025531;28;20752;-87
2023/09/06 12:27:46;;;;;;;3.83;2.90;;;27.00;99.90;;;;;;5026764;28;20025;-86
2023/09/06 12:30:14;;;;;;;5.80;3.60;;;27.10;99.90;;;;;;5027046;28;20033;-86
2023/09/06 12:32:40;;;;;;;6.35;4.00;;;26.90;99.90;;;;;;5026997;28;20040;-88
2023/09/06 12:35:07;;;;;;;7.03;3.40;;;27.10;99.90;;;;;;5026436;28;20025;-87
2023/09/06 12:37:34;;;;;;;9.90;3.40;;;27.10;99.90;;;;;;5026490;28;20103;-87
2023/09/06 12:40:00;;;;;;;4.65;3.45;;;27.20;99.90;;;;;;5027115;28;20029;-86
2023/09/06 12:42:26;;;;;;;6.40;3.50;;;27.30;99.90;;;;;;5027528;28;20032;-87